Time;durP1;ratioP1;P1;durP2;ratioP2;P2;SDS_P1;SDS_P2;PMS_P1;PMS_P2;Temp;Humidity;BMP_temperature;BMP_pressure;BME280_temperature;BME280_humidity;BME280_pressure;Samples;Min_cycle;Max_cycle;Signal;HPM_P1;HPM_P2
2022/12/15 00:38:43;;;;;;;0.00;0.00;;;;;;;-2.11;100.00;97457.19;4952009;28;20228;-55
2022/12/15 00:41:12;;;;;;;0.00;0.00;;;;;;;-2.14;100.00;97456.56;4955541;28;20651;-55
2022/12/15 00:43:39;;;;;;;0.00;0.00;;;;;;;-2.14;100.00;97462.50;4951982;28;20224;-56
2022/12/15 00:48:50;;;;;;;0.03;0.03;;;;;;;-2.15;100.00;97454.94;4953679;28;20252;-55
2022/12/15 00:51:17;;;;;;;0.00;0.00;;;;;;;-2.28;100.00;97452.34;4955727;28;20314;-52
2022/12/15 01:21:12;;;;;;;0.00;0.00;;;;;;;-2.53;100.00;97474.34;4951948;28;20235;-53
2022/12/15 01:23:40;;;;;;;0.10;0.10;;;;;;;-2.53;100.00;97477.72;4951636;28;20322;-55
2022/12/15 01:26:07;;;;;;;0.00;0.00;;;;;;;-2.47;100.00;97489.28;4954415;28;20239;-55
2022/12/15 01:28:35;;;;;;;0.00;0.00;;;;;;;-2.43;100.00;97484.81;4950118;28;20296;-55
2022/12/15 01:31:02;;;;;;;0.10;0.10;;;;;;;-2.41;100.00;97488.91;4951148;28;20245;-53
2022/12/15 01:33:28;;;;;;;0.00;0.00;;;;;;;-2.40;100.00;97492.28;4955433;28;20296;-54
2022/12/15 01:35:56;;;;;;;0.00;0.00;;;;;;;-2.47;100.00;97496.16;4952055;28;20293;-54
2022/12/15 01:38:24;;;;;;;0.00;0.00;;;;;;;-2.46;100.00;97492.69;4950675;28;20616;-55
2022/12/15 01:40:52;;;;;;;0.00;0.00;;;;;;;-2.47;100.00;97491.84;4950512;28;20303;-54
2022/12/15 01:43:21;;;;;;;0.10;0.10;;;;;;;-2.41;100.00;97490.66;4952966;28;20236;-55
2022/12/15 01:45:56;;;;;;;0.07;0.07;;;;;;;-2.47;100.00;97489.28;4949465;28;20590;-55
2022/12/15 01:48:27;;;;;;;0.00;0.00;;;;;;;-2.38;100.00;97490.47;4947915;28;20729;-55
2022/12/15 01:51:01;;;;;;;0.00;0.00;;;;;;;-2.33;100.00;97493.53;4949109;28;21287;-54
2022/12/15 01:53:30;;;;;;;0.00;0.00;;;;;;;-2.28;100.00;97490.69;4951689;28;20235;-54
2022/12/15 01:55:57;;;;;;;0.00;0.00;;;;;;;-2.28;100.00;97499.19;4946369;28;20259;-55
2022/12/15 01:58:25;;;;;;;0.00;0.00;;;;;;;-2.26;100.00;97504.19;4951905;28;20240;-55
2022/12/15 02:00:53;;;;;;;0.00;0.00;;;;;;;-2.16;100.00;97500.13;4952061;28;20293;-56
2022/12/15 02:03:19;;;;;;;0.00;0.00;;;;;;;-2.26;100.00;97507.56;4954245;28;20235;-55
2022/12/15 02:05:47;;;;;;;0.00;0.00;;;;;;;-2.29;100.00;97507.78;4950705;28;20719;-52
2022/12/15 02:08:14;;;;;;;0.00;0.00;;;;;;;-2.37;100.00;97510.00;4954878;28;20310;-53
2022/12/15 02:10:57;;;;;;;0.00;0.00;;;;;;;-2.41;100.00;97513.66;4966059;28;20891;-53
2022/12/15 02:13:32;;;;;;;0.00;0.00;;;;;;;-2.37;100.00;97525.31;4958051;28;20244;-52
2022/12/15 02:16:10;;;;;;;0.00;0.00;;;;;;;-2.47;100.00;97516.59;4949007;28;20250;-52
2022/12/15 02:18:45;;;;;;;0.00;0.00;;;;;;;-2.47;100.00;97514.84;4953268;28;20238;-52
2022/12/15 02:21:19;;;;;;;0.00;0.00;;;;;;;-2.48;100.00;97520.06;4955216;28;20283;-52
2022/12/15 02:24:19;;;;;;;0.07;0.07;;;;;;;-2.48;100.00;97514.94;4954455;28;20848;-51
2022/12/15 02:27:24;;;;;;;0.00;0.00;;;;;;;-2.51;100.00;97515.94;4951012;28;20282;-52
2022/12/15 02:30:28;;;;;;;0.00;0.00;;;;;;;-2.59;100.00;97525.81;4953641;28;20470;-52
2022/12/15 02:33:06;;;;;;;0.00;0.00;;;;;;;-2.57;100.00;97524.84;4950693;28;20754;-56
2022/12/15 02:35:42;;;;;;;0.10;0.10;;;;;;;-2.56;100.00;97531.59;4957749;28;20277;-55
2022/12/15 02:38:09;;;;;;;0.00;0.00;;;;;;;-2.50;100.00;97530.38;4958358;28;20672;-55
2022/12/15 02:40:36;;;;;;;0.00;0.00;;;;;;;-2.52;100.00;97532.19;4952302;28;20240;-56
2022/12/15 02:43:06;;;;;;;0.00;0.00;;;;;;;-2.55;100.00;97520.44;4957224;28;20247;-55
2022/12/15 02:45:39;;;;;;;0.00;0.00;;;;;;;-2.59;100.00;97529.22;4954785;28;20242;-55
2022/12/15 02:48:16;;;;;;;0.03;0.03;;;;;;;-2.58;100.00;97530.03;4952848;28;20294;-54
2022/12/15 02:50:57;;;;;;;0.03;0.03;;;;;;;-2.54;100.00;97526.34;4952402;28;20255;-55
2022/12/15 02:53:41;;;;;;;0.00;0.00;;;;;;;-2.50;100.00;97532.13;4952062;28;20238;-54
2022/12/15 02:56:18;;;;;;;0.00;0.00;;;;;;;-2.44;100.00;97532.53;4952856;28;20237;-52
2022/12/15 02:58:50;;;;;;;0.00;0.00;;;;;;;-2.41;100.00;97534.09;4951157;28;20259;-54
2022/12/15 03:01:24;;;;;;;0.00;0.00;;;;;;;-2.39;100.00;97542.50;4963826;28;20254;-54
2022/12/15 03:03:51;;;;;;;0.00;0.00;;;;;;;-2.38;100.00;97536.47;4951547;28;20617;-55
2022/12/15 03:06:19;;;;;;;0.00;0.00;;;;;;;-2.38;100.00;97521.13;4954270;28;20799;-54
2022/12/15 03:08:46;;;;;;;0.00;0.00;;;;;;;-2.40;100.00;97530.63;4952165;28;20285;-53
2022/12/15 03:11:12;;;;;;;0.00;0.00;;;;;;;-2.43;100.00;97529.06;4955290;28;20253;-54
2022/12/15 03:13:39;;;;;;;0.00;0.00;;;;;;;-2.42;100.00;97535.81;4953144;28;20236;-53
2022/12/15 03:16:06;;;;;;;0.00;0.00;;;;;;;-2.38;100.00;97536.47;4958924;28;20245;-52
2022/12/15 03:18:35;;;;;;;0.00;0.00;;;;;;;-2.41;100.00;97542.56;4951911;28;20231;-54
2022/12/15 03:21:01;;;;;;;0.00;0.00;;;;;;;-2.41;100.00;97542.56;4951129;28;20306;-53
2022/12/15 03:23:28;;;;;;;0.00;0.00;;;;;;;-2.46;100.00;97541.22;4958027;28;20299;-55
2022/12/15 03:25:55;;;;;;;0.00;0.00;;;;;;;-2.47;100.00;97542.16;4952990;28;20236;-53
2022/12/15 03:28:22;;;;;;;0.00;0.00;;;;;;;-2.46;100.00;97539.47;4957795;28;20246;-53
2022/12/15 03:30:49;;;;;;;0.00;0.00;;;;;;;-2.41;100.00;97532.34;4956618;28;20224;-54
2022/12/15 03:33:15;;;;;;;0.00;0.00;;;;;;;-2.36;100.00;97542.31;4954820;28;20232;-52
2022/12/15 03:35:44;;;;;;;0.00;0.00;;;;;;;-2.34;100.00;97548.13;4953798;28;20230;-52
2022/12/15 03:38:10;;;;;;;0.00;0.00;;;;;;;-2.30;100.00;97541.06;4954441;28;20705;-55
2022/12/15 03:40:37;;;;;;;0.00;0.00;;;;;;;-2.33;100.00;97539.56;4948479;28;20633;-55
2022/12/15 03:43:03;;;;;;;0.00;0.00;;;;;;;-2.33;100.00;97539.56;4950966;28;20836;-53
2022/12/15 03:45:30;;;;;;;0.07;0.07;;;;;;;-2.33;100.00;97541.28;4955183;28;20258;-54
2022/12/15 03:47:57;;;;;;;0.00;0.00;;;;;;;-2.32;100.00;97540.34;4953518;28;20236;-54
2022/12/15 03:50:26;;;;;;;0.10;0.10;;;;;;;-2.29;100.00;97542.72;4953623;28;20244;-52
2022/12/15 03:52:56;;;;;;;0.00;0.00;;;;;;;-2.34;100.00;97552.41;4951657;28;20239;-53
2022/12/15 03:55:23;;;;;;;0.00;0.00;;;;;;;-2.45;100.00;97558.22;4954793;28;20716;-55
2022/12/15 03:57:50;;;;;;;0.00;0.00;;;;;;;-2.45;100.00;97555.66;4952709;28;20279;-54
2022/12/15 04:00:18;;;;;;;0.00;0.00;;;;;;;-2.47;100.00;97553.19;4954304;28;20280;-54
2022/12/15 04:02:46;;;;;;;0.00;0.00;;;;;;;-2.59;100.00;97559.88;4951873;28;20221;-54
2022/12/15 04:05:16;;;;;;;0.10;0.10;;;;;;;-2.65;100.00;97555.13;4957329;28;20240;-52
2022/12/15 04:07:43;;;;;;;0.03;0.03;;;;;;;-2.61;100.00;97545.53;4949387;28;20712;-52
2022/12/15 04:10:12;;;;;;;0.00;0.00;;;;;;;-2.69;100.00;97536.66;4952717;28;20283;-54
2022/12/15 04:12:39;;;;;;;0.00;0.00;;;;;;;-2.61;100.00;97540.44;4949950;28;20388;-55
2022/12/15 04:15:07;;;;;;;0.03;0.03;;;;;;;-2.59;100.00;97544.53;4955669;28;20334;-54
2022/12/15 04:17:34;;;;;;;0.00;0.00;;;;;;;-2.58;100.00;97545.34;4953039;28;20237;-54
2022/12/15 04:20:09;;;;;;;0.00;0.00;;;;;;;-2.58;100.00;97545.34;4953919;28;20256;-54
2022/12/15 04:22:36;;;;;;;0.00;0.00;;;;;;;-2.59;100.00;97557.31;4951552;28;20297;-52
2022/12/15 05:33:45;;;;;;;0.03;0.03;;;;;;;-2.59;100.00;97557.31;4951047;28;20239;-52
2022/12/15 05:36:12;;;;;;;0.00;0.00;;;;;;;-2.64;100.00;97546.56;4955592;28;20243;-55
2022/12/15 05:38:38;;;;;;;0.00;0.00;;;;;;;-2.58;100.00;97535.13;4952720;28;20248;-54
2022/12/15 05:41:06;;;;;;;0.00;0.00;;;;;;;-2.60;100.00;97542.06;4955320;28;20235;-52
2022/12/15 05:43:32;;;;;;;0.00;0.00;;;;;;;-2.54;100.00;97549.34;4957251;28;20319;-52
2022/12/15 05:46:03;;;;;;;0.00;0.00;;;;;;;-2.54;100.00;97539.97;4946194;28;20650;-51
2022/12/15 05:48:29;;;;;;;0.10;0.10;;;;;;;-2.53;100.00;97551.84;4967292;28;20617;-51
2022/12/15 05:50:57;;;;;;;0.00;0.00;;;;;;;-2.53;100.00;97551.00;4955155;28;20229;-51
2022/12/15 05:53:24;;;;;;;0.00;0.00;;;;;;;-2.52;100.00;97555.19;4953454;28;20773;-51
2022/12/15 05:55:50;;;;;;;0.00;0.00;;;;;;;-2.55;100.00;97563.03;4952493;28;20243;-51
2022/12/15 05:58:17;;;;;;;0.10;0.10;;;;;;;-2.57;100.00;97580.22;4954631;28;20293;-51
2022/12/15 06:00:43;;;;;;;0.00;0.00;;;;;;;-2.60;100.00;97601.66;4954371;28;20229;-53
2022/12/15 06:03:10;;;;;;;0.10;0.10;;;;;;;-2.59;100.00;97590.53;4958259;28;20233;-52
2022/12/15 06:05:37;;;;;;;0.00;0.00;;;;;;;-2.61;100.00;97579.59;4956156;28;20305;-53
2022/12/15 06:08:05;;;;;;;0.00;0.00;;;;;;;-2.59;100.00;97574.38;4957315;28;20233;-52
2022/12/15 06:10:32;;;;;;;0.10;0.10;;;;;;;-2.61;100.00;97573.63;4973029;28;20241;-51
2022/12/15 06:12:58;;;;;;;0.00;0.00;;;;;;;-2.63;100.00;97580.59;4953733;28;20262;-53
2022/12/15 06:15:25;;;;;;;0.00;0.00;;;;;;;-2.61;100.00;97605.13;4958116;28;20248;-52
2022/12/15 06:17:52;;;;;;;0.00;0.00;;;;;;;-2.63;100.00;97606.13;4968963;28;20259;-52
2022/12/15 06:20:19;;;;;;;0.00;0.00;;;;;;;-2.62;100.00;97600.94;4958319;28;20237;-52
2022/12/15 06:22:45;;;;;;;0.00;0.00;;;;;;;-2.59;100.00;97598.19;4955131;28;20331;-53
2022/12/15 06:25:14;;;;;;;0.00;0.00;;;;;;;-2.60;100.00;97594.00;4956513;28;20710;-53
2022/12/15 06:27:40;;;;;;;0.07;0.07;;;;;;;-2.65;100.00;97595.22;4952205;28;20235;-54
2022/12/15 06:30:07;;;;;;;0.10;0.10;;;;;;;-2.67;100.00;97591.00;4952956;28;20231;-54
2022/12/15 06:32:35;;;;;;;0.00;0.00;;;;;;;-2.64;100.00;97592.56;4953396;28;20302;-52
2022/12/15 06:35:01;;;;;;;0.00;0.00;;;;;;;-2.64;100.00;97589.16;4955594;28;20268;-53
2022/12/15 06:37:28;;;;;;;0.00;0.00;;;;;;;-2.70;100.00;97593.75;4957238;28;20324;-52
2022/12/15 06:39:54;;;;;;;0.00;0.00;;;;;;;-2.73;100.00;97585.44;4954025;28;20245;-52
2022/12/15 06:42:22;;;;;;;0.00;0.00;;;;;;;-2.69;100.00;97592.00;4954251;28;20726;-53
2022/12/15 06:44:49;;;;;;;0.00;0.00;;;;;;;-2.68;100.00;97578.31;4951527;28;20300;-52
2022/12/15 06:47:17;;;;;;;0.00;0.00;;;;;;;-2.71;100.00;97576.78;4956951;28;20231;-52
2022/12/15 06:49:43;;;;;;;0.00;0.00;;;;;;;-2.70;100.00;97572.47;4949881;28;20239;-54
2022/12/15 06:52:10;;;;;;;0.00;0.00;;;;;;;-2.72;100.00;97570.03;4953155;28;20275;-54
2022/12/15 06:54:37;;;;;;;0.00;0.00;;;;;;;-2.69;100.00;97569.84;4950237;28;20321;-54
2022/12/15 06:57:04;;;;;;;0.00;0.00;;;;;;;-2.59;100.00;97570.09;4957863;28;20318;-54
2022/12/15 06:59:32;;;;;;;0.03;0.03;;;;;;;-2.65;100.00;97562.00;4953407;28;20230;-52
2022/12/15 07:01:59;;;;;;;0.00;0.00;;;;;;;-2.71;100.00;97553.78;4949856;28;20708;-51
2022/12/15 07:04:25;;;;;;;0.00;0.00;;;;;;;-2.64;100.00;97563.63;4954761;28;20692;-51
2022/12/15 07:06:52;;;;;;;0.00;0.00;;;;;;;-2.59;100.00;97565.00;4952969;28;20235;-53
2022/12/15 07:09:19;;;;;;;0.10;0.10;;;;;;;-2.53;100.00;97563.78;4956921;28;20286;-51
2022/12/15 07:11:49;;;;;;;0.10;0.10;;;;;;;-2.50;100.00;97562.78;4951743;28;20329;-51
2022/12/15 07:14:15;;;;;;;0.00;0.00;;;;;;;-2.45;100.00;97556.47;4951861;28;20272;-51
2022/12/15 07:16:44;;;;;;;0.07;0.07;;;;;;;-2.44;100.00;97570.06;4955994;28;20346;-52
2022/12/15 07:19:12;;;;;;;0.00;0.00;;;;;;;-2.44;100.00;97570.06;4954669;28;20679;-52
2022/12/15 07:21:39;;;;;;;0.00;0.00;;;;;;;-2.43;100.00;97571.72;4948945;28;20709;-51
2022/12/15 07:24:06;;;;;;;0.00;0.00;;;;;;;-2.42;100.00;97586.94;4954005;28;20803;-52
2022/12/15 07:26:34;;;;;;;0.07;0.07;;;;;;;-2.37;100.00;97586.66;4954089;28;20236;-53
2022/12/15 07:29:00;;;;;;;0.00;0.00;;;;;;;-2.46;100.00;97598.25;4950589;28;20601;-51
2022/12/15 07:31:27;;;;;;;0.03;0.03;;;;;;;-2.44;100.00;97596.44;4953837;28;20236;-51
2022/12/15 07:33:55;;;;;;;0.00;0.00;;;;;;;-2.42;100.00;97596.34;4953077;28;20246;-52
2022/12/15 07:36:21;;;;;;;0.03;0.03;;;;;;;-2.44;100.00;97591.31;4952598;28;20231;-51
2022/12/15 07:38:48;;;;;;;0.10;0.10;;;;;;;-2.40;100.00;97607.28;4952025;28;20237;-51
2022/12/15 07:41:14;;;;;;;0.00;0.00;;;;;;;-2.49;100.00;97610.41;4955499;28;20664;-51
2022/12/15 07:43:41;;;;;;;0.00;0.00;;;;;;;-2.64;100.00;97614.69;4950148;28;20578;-51
2022/12/15 07:46:08;;;;;;;0.00;0.00;;;;;;;-2.64;100.00;97623.22;4956053;28;20244;-51
2022/12/15 07:48:35;;;;;;;0.00;0.00;;;;;;;-2.76;100.00;97623.94;4953888;28;20234;-53
2022/12/15 07:51:06;;;;;;;0.00;0.00;;;;;;;-2.85;100.00;97623.56;4950638;28;20243;-52
2022/12/15 07:53:33;;;;;;;0.10;0.10;;;;;;;-2.84;100.00;97622.66;4953210;28;20235;-51
2022/12/15 07:56:00;;;;;;;0.00;0.00;;;;;;;-2.72;100.00;97626.22;4953990;28;20230;-51
2022/12/15 07:58:27;;;;;;;0.03;0.03;;;;;;;-2.61;100.00;97624.75;4955219;28;20235;-53
2022/12/15 08:00:58;;;;;;;0.10;0.10;;;;;;;-2.58;100.00;97629.66;4951813;28;20232;-51
2022/12/15 08:03:25;;;;;;;0.00;0.00;;;;;;;-2.40;100.00;97633.66;4953256;28;20227;-51
2022/12/15 08:05:51;;;;;;;0.03;0.03;;;;;;;-2.38;100.00;97631.03;4954728;28;20216;-51
2022/12/15 08:08:21;;;;;;;0.00;0.00;;;;;;;-2.37;100.00;97625.00;4955556;28;20638;-51
2022/12/15 08:10:48;;;;;;;0.00;0.00;;;;;;;-2.32;100.00;97627.25;4953075;28;20226;-51
2022/12/15 08:13:15;;;;;;;0.00;0.00;;;;;;;-2.21;100.00;97629.97;4953379;28;20228;-51
2022/12/15 08:15:43;;;;;;;0.00;0.00;;;;;;;-2.07;100.00;97634.22;4951044;28;20231;-51
2022/12/15 08:18:09;;;;;;;0.00;0.00;;;;;;;-1.94;100.00;97629.97;4953276;28;20251;-52
2022/12/15 08:20:36;;;;;;;0.00;0.00;;;;;;;-1.80;100.00;97641.09;4953384;28;20232;-51
2022/12/15 08:23:02;;;;;;;0.00;0.00;;;;;;;-1.73;100.00;97642.34;4956212;28;20237;-51
2022/12/15 08:25:31;;;;;;;0.00;0.00;;;;;;;-1.73;100.00;97660.25;4953692;28;20767;-51
2022/12/15 08:27:59;;;;;;;0.00;0.00;;;;;;;-1.63;100.00;97658.75;4950304;28;20259;-51
2022/12/15 08:30:25;;;;;;;0.00;0.00;;;;;;;-1.56;100.00;97656.59;4954014;28;20243;-52
2022/12/15 08:32:52;;;;;;;0.00;0.00;;;;;;;-1.45;100.00;97648.25;4952018;28;20253;-53
2022/12/15 08:35:19;;;;;;;0.00;0.00;;;;;;;-1.38;100.00;97648.66;4954362;28;20227;-51
2022/12/15 08:37:45;;;;;;;0.00;0.00;;;;;;;-1.41;100.00;97652.25;4951122;28;20232;-51
2022/12/15 08:40:13;;;;;;;0.10;0.10;;;;;;;-1.37;100.00;97650.31;4952767;28;20240;-51
2022/12/15 08:42:41;;;;;;;0.00;0.00;;;;;;;-1.30;100.00;97651.53;4954457;28;20239;-52
2022/12/15 08:45:09;;;;;;;0.00;0.00;;;;;;;-1.21;100.00;97650.94;4954488;28;20230;-53
2022/12/15 08:47:35;;;;;;;0.00;0.00;;;;;;;-1.19;100.00;97643.19;4949003;28;20819;-51
2022/12/15 08:50:02;;;;;;;0.03;0.03;;;;;;;-1.15;100.00;97654.03;4952619;28;20721;-51
2022/12/15 08:52:28;;;;;;;0.00;0.00;;;;;;;-1.17;100.00;97656.69;4952592;28;20244;-52
2022/12/15 08:54:55;;;;;;;0.00;0.00;;;;;;;-1.19;100.00;97666.22;4958030;28;20712;-51
2022/12/15 08:57:21;;;;;;;0.00;0.00;;;;;;;-1.38;100.00;97662.28;4958845;28;20317;-51
2022/12/15 08:59:49;;;;;;;0.00;0.00;;;;;;;-1.46;100.00;97651.72;4954708;28;20239;-51
2022/12/15 09:02:16;;;;;;;0.00;0.00;;;;;;;-1.40;100.00;97650.50;4959783;28;20232;-51
2022/12/15 09:04:44;;;;;;;0.00;0.00;;;;;;;-1.40;100.00;97648.78;4957633;28;20932;-51
2022/12/15 09:07:10;;;;;;;0.00;0.00;;;;;;;-1.26;100.00;97658.09;4956650;28;20307;-51
2022/12/15 09:09:37;;;;;;;0.00;0.00;;;;;;;-1.28;100.00;97664.25;4958796;28;20216;-52
2022/12/15 09:12:05;;;;;;;0.00;0.00;;;;;;;-1.32;100.00;97670.50;4962137;28;20247;-51
2022/12/15 09:14:31;;;;;;;0.00;0.00;;;;;;;-1.21;100.00;97661.19;4958924;28;20233;-51
2022/12/15 09:16:59;;;;;;;0.00;0.00;;;;;;;-1.16;100.00;97667.75;4954128;28;20232;-51
2022/12/15 09:19:26;;;;;;;0.00;0.00;;;;;;;-1.14;100.00;97653.94;4957579;28;20228;-51
2022/12/15 09:21:53;;;;;;;0.00;0.00;;;;;;;-1.11;100.00;97666.53;4952906;28;20277;-51
2022/12/15 09:24:19;;;;;;;0.00;0.00;;;;;;;-1.07;100.00;97667.97;4955377;28;20240;-51
2022/12/15 09:26:46;;;;;;;0.00;0.00;;;;;;;-1.19;100.00;97676.47;4953110;28;20684;-51
2022/12/15 09:29:13;;;;;;;0.00;0.00;;;;;;;-1.28;100.00;97670.19;4958878;28;20224;-51
2022/12/15 09:31:43;;;;;;;0.00;0.00;;;;;;;-1.05;100.00;97670.44;4954666;28;20277;-51
2022/12/15 09:34:13;;;;;;;0.10;0.10;;;;;;;-0.97;100.00;97667.34;4959906;28;20232;-52
2022/12/15 09:36:40;;;;;;;0.00;0.00;;;;;;;-0.95;100.00;97656.09;4955537;28;20720;-52
2022/12/15 09:39:07;;;;;;;0.00;0.00;;;;;;;-0.91;100.00;97664.38;4954352;28;20276;-51
2022/12/15 09:41:35;;;;;;;0.00;0.00;;;;;;;-0.83;100.00;97674.13;4958645;28;20241;-51
2022/12/15 09:44:04;;;;;;;0.00;0.00;;;;;;;-0.75;100.00;97669.31;4952815;28;20234;-51
2022/12/15 09:46:41;;;;;;;0.00;0.00;;;;;;;-0.75;100.00;97672.69;4959317;28;20229;-51
2022/12/15 09:49:18;;;;;;;0.00;0.00;;;;;;;-0.71;100.00;97663.06;4949339;28;20225;-51
2022/12/15 09:52:00;;;;;;;0.00;0.00;;;;;;;-0.81;99.73;97662.03;4953586;28;20240;-52
2022/12/15 09:54:32;;;;;;;0.00;0.00;;;;;;;-0.90;99.80;97666.00;4959461;28;20243;-51
2022/12/15 09:57:04;;;;;;;0.00;0.00;;;;;;;-0.86;100.00;97677.69;4951964;28;20248;-51
2022/12/15 09:59:35;;;;;;;0.00;0.00;;;;;;;-0.70;100.00;97681.81;4957160;28;20237;-51
2022/12/15 10:02:21;;;;;;;0.00;0.00;;;;;;;-0.73;98.47;97687.13;4955194;28;20243;-51
2022/12/15 10:04:57;;;;;;;0.00;0.00;;;;;;;-0.68;99.21;97678.22;4954508;28;20243;-52
2022/12/15 10:07:28;;;;;;;0.00;0.00;;;;;;;-0.54;98.46;97671.34;4959713;28;20229;-51
2022/12/15 10:09:55;;;;;;;0.00;0.00;;;;;;;-0.49;98.73;97649.59;4955359;28;20259;-51
2022/12/15 10:12:29;;;;;;;0.00;0.00;;;;;;;-0.17;96.80;97646.56;4955172;28;20251;-53
2022/12/15 10:15:08;;;;;;;0.00;0.00;;;;;;;0.08;95.28;97633.72;4969926;28;20668;-51
2022/12/15 10:17:45;;;;;;;0.00;0.00;;;;;;;0.27;95.28;97633.22;4954036;28;20593;-51
2022/12/15 10:20:18;;;;;;;0.00;0.00;;;;;;;0.60;94.79;97631.72;4952625;28;20592;-51
2022/12/15 10:22:46;;;;;;;0.00;0.00;;;;;;;0.99;93.29;97631.44;4954090;28;20697;-53
2022/12/15 10:25:16;;;;;;;0.00;0.00;;;;;;;1.12;91.12;97637.31;4954973;28;20226;-53
2022/12/15 10:28:04;;;;;;;0.00;0.00;;;;;;;1.22;89.73;97626.31;4953594;28;20241;-52
2022/12/15 10:30:31;;;;;;;0.00;0.00;;;;;;;1.24;88.02;97616.75;4957144;28;20245;-53
2022/12/15 10:33:02;;;;;;;0.00;0.00;;;;;;;1.16;87.05;97610.44;4954555;28;20244;-52
2022/12/15 10:35:32;;;;;;;0.00;0.00;;;;;;;1.11;87.80;97611.69;4954874;28;20218;-54
2022/12/15 10:38:02;;;;;;;0.00;0.00;;;;;;;0.77;86.27;97609.13;4952546;28;20225;-50
2022/12/15 10:40:48;;;;;;;0.00;0.00;;;;;;;0.40;89.06;97602.38;4956060;28;20227;-52
2022/12/15 10:43:25;;;;;;;0.00;0.00;;;;;;;0.43;91.26;97604.72;4953661;28;20238;-53
2022/12/15 10:46:00;;;;;;;0.00;0.00;;;;;;;0.41;90.85;97609.94;4952235;28;20279;-50
2022/12/15 10:48:27;;;;;;;0.00;0.00;;;;;;;0.36;92.34;97603.53;4952954;28;20625;-51
2022/12/15 10:51:20;;;;;;;0.00;0.00;;;;;;;0.45;92.46;97610.56;4952594;28;20224;-52
2022/12/15 10:53:48;;;;;;;0.00;0.00;;;;;;;0.53;90.04;97613.34;4952629;28;20222;-52
2022/12/15 10:56:20;;;;;;;0.00;0.00;;;;;;;0.04;93.92;97619.47;4960214;28;20307;-50
2022/12/15 10:58:50;;;;;;;0.00;0.00;;;;;;;0.27;92.52;97605.00;4954420;28;20724;-52
2022/12/15 11:01:19;;;;;;;0.00;0.00;;;;;;;0.29;93.46;97616.81;4958862;28;20257;-50
2022/12/15 11:03:50;;;;;;;0.00;0.00;;;;;;;-0.04;94.34;97605.44;4954216;28;20329;-52
2022/12/15 11:06:21;;;;;;;0.10;0.10;;;;;;;0.12;94.68;97606.94;4956710;28;20326;-51
2022/12/15 11:08:50;;;;;;;0.10;0.10;;;;;;;0.25;93.84;97606.84;4952243;28;20310;-52
2022/12/15 11:14:16;;;;;;;0.00;0.00;;;;;;;-0.46;97.96;97610.94;4953954;28;20334;-50
2022/12/15 11:16:49;;;;;;;0.07;0.07;;;;;;;-0.39;98.27;97606.19;4952687;28;20249;-53
2022/12/15 11:19:27;;;;;;;0.00;0.00;;;;;;;-0.80;100.00;97605.53;4956052;28;20232;-53
2022/12/15 11:21:59;;;;;;;0.00;0.00;;;;;;;-0.55;100.00;97600.50;4955206;28;20228;-52
2022/12/15 11:24:36;;;;;;;0.00;0.00;;;;;;;-0.38;100.00;97578.81;4956576;28;20226;-51
2022/12/15 11:27:11;;;;;;;0.00;0.00;;;;;;;-0.45;99.43;97576.69;4951536;28;20240;-50
2022/12/15 11:29:48;;;;;;;0.00;0.00;;;;;;;-0.44;100.00;97572.34;4953970;28;20244;-52
2022/12/15 11:32:20;;;;;;;0.00;0.00;;;;;;;-0.42;99.73;97562.00;4956171;28;20571;-52
2022/12/15 11:34:48;;;;;;;0.10;0.10;;;;;;;-0.23;99.81;97554.66;4968614;28;20228;-52
2022/12/15 11:37:37;;;;;;;0.00;0.00;;;;;;;-0.17;97.17;97540.56;4958480;28;20243;-50
2022/12/15 11:40:18;;;;;;;0.00;0.00;;;;;;;-0.06;97.93;97530.34;4950966;28;20707;-50
2022/12/15 11:42:56;;;;;;;0.00;0.00;;;;;;;0.22;97.89;97509.53;4953959;28;20721;-51
2022/12/15 11:45:30;;;;;;;0.00;0.00;;;;;;;0.38;96.87;97504.91;4954187;28;20217;-51
2022/12/15 11:48:05;;;;;;;0.00;0.00;;;;;;;0.41;94.93;97496.97;4952655;28;20285;-52
2022/12/15 11:50:41;;;;;;;0.00;0.00;;;;;;;0.56;95.43;97492.44;4954967;28;20217;-53
2022/12/15 11:53:31;;;;;;;0.00;0.00;;;;;;;0.72;95.14;97479.28;4945945;28;20242;-52
2022/12/15 11:56:07;;;;;;;0.00;0.00;;;;;;;0.71;94.79;97484.50;4946543;28;20706;-53
2022/12/15 11:58:50;;;;;;;0.00;0.00;;;;;;;0.75;95.26;97487.69;4955164;28;20233;-52
2022/12/15 12:01:33;;;;;;;0.00;0.00;;;;;;;0.69;94.70;97484.63;4950921;28;20226;-51
2022/12/15 12:04:09;;;;;;;0.00;0.00;;;;;;;0.96;95.36;97486.03;4951585;28;20226;-51
2022/12/15 12:06:42;;;;;;;0.00;0.00;;;;;;;1.21;94.82;97489.25;4950584;28;20232;-53
2022/12/15 12:09:33;;;;;;;0.03;0.03;;;;;;;1.13;91.28;97491.59;4949093;28;20305;-53
2022/12/15 12:12:10;;;;;;;0.00;0.00;;;;;;;1.11;90.99;97480.63;4950858;28;20237;-53
2022/12/15 12:14:48;;;;;;;0.00;0.00;;;;;;;1.14;90.46;97478.66;4953280;28;20225;-52
2022/12/15 12:17:27;;;;;;;0.00;0.00;;;;;;;1.26;90.85;97487.13;4954343;28;20217;-52
2022/12/15 12:19:57;;;;;;;0.00;0.00;;;;;;;1.69;90.12;97482.91;4951546;28;21180;-50
2022/12/15 12:22:29;;;;;;;0.10;0.10;;;;;;;1.95;87.62;97486.94;4956050;28;20237;-52
2022/12/15 12:25:01;;;;;;;0.00;0.00;;;;;;;2.20;85.77;97486.53;4948782;28;20221;-53
2022/12/15 12:27:35;;;;;;;0.00;0.00;;;;;;;2.47;83.65;97474.91;4954426;28;20923;-50
2022/12/15 12:30:04;;;;;;;0.10;0.10;;;;;;;2.95;80.58;97477.81;4958943;28;20235;-51
2022/12/15 12:32:40;;;;;;;0.00;0.00;;;;;;;2.44;82.31;97470.00;4958303;28;20248;-50
2022/12/15 12:35:13;;;;;;;0.10;0.10;;;;;;;2.52;82.93;97471.97;4956526;28;20324;-51
2022/12/15 12:37:43;;;;;;;0.10;0.10;;;;;;;1.94;83.78;97469.84;4954842;28;20602;-50
2022/12/15 12:40:19;;;;;;;0.00;0.00;;;;;;;1.27;88.63;97452.78;4959517;28;20222;-50
2022/12/15 12:42:53;;;;;;;0.10;0.10;;;;;;;0.87;92.69;97456.72;4954390;28;20281;-52
2022/12/15 12:45:23;;;;;;;0.00;0.00;;;;;;;1.26;91.58;97453.72;4957177;28;20300;-50
2022/12/15 12:47:55;;;;;;;0.00;0.00;;;;;;;1.01;92.77;97455.66;4956420;28;20232;-51
2022/12/15 12:50:25;;;;;;;0.00;0.00;;;;;;;0.59;94.64;97445.19;4961112;28;20225;-50
2022/12/15 12:52:54;;;;;;;0.10;0.10;;;;;;;0.58;94.22;97452.06;4954263;28;20249;-50
2022/12/15 12:55:29;;;;;;;0.00;0.00;;;;;;;1.03;92.85;97448.66;4957580;28;20222;-51
2022/12/15 12:57:56;;;;;;;0.00;0.00;;;;;;;0.91;92.43;97454.75;4955808;28;20244;-51
2022/12/15 13:00:25;;;;;;;0.00;0.00;;;;;;;0.83;93.69;97447.59;4959773;28;20230;-52
2022/12/15 13:03:16;;;;;;;0.10;0.10;;;;;;;0.62;96.32;97436.41;4954896;28;20626;-53
2022/12/15 13:05:45;;;;;;;0.00;0.00;;;;;;;0.58;94.79;97428.94;4954116;28;20244;-52
2022/12/15 13:08:51;;;;;;;0.00;0.00;;;;;;;0.52;96.52;97423.47;4957832;28;20238;-52
2022/12/15 13:11:57;;;;;;;0.10;0.10;;;;;;;0.45;94.74;97415.44;4969124;28;20225;-51
2022/12/15 13:14:43;;;;;;;0.00;0.00;;;;;;;0.61;95.16;97409.94;4957568;28;20598;-51
2022/12/15 13:17:19;;;;;;;0.00;0.00;;;;;;;0.97;94.12;97402.88;4955412;28;20230;-52
2022/12/15 13:20:18;;;;;;;0.00;0.00;;;;;;;0.54;94.82;97403.63;4955485;28;20221;-52
2022/12/15 13:22:45;;;;;;;0.00;0.00;;;;;;;0.65;93.67;97389.94;4957218;28;20313;-51
2022/12/15 13:25:43;;;;;;;0.00;0.00;;;;;;;0.68;94.95;97382.84;4959308;28;20622;-53
2022/12/15 13:28:23;;;;;;;0.00;0.00;;;;;;;0.62;94.90;97380.75;4956208;28;20297;-51
2022/12/15 13:31:41;;;;;;;0.00;0.00;;;;;;;0.65;93.63;97382.25;4953670;28;20237;-51
2022/12/15 13:34:18;;;;;;;0.00;0.00;;;;;;;0.47;94.97;97372.47;4875327;29;20626;-51
2022/12/15 13:37:07;;;;;;;0.00;0.00;;;;;;;0.59;94.14;97368.94;4876589;29;20228;-51
2022/12/15 13:39:56;;;;;;;0.00;0.00;;;;;;;0.63;95.23;97369.53;4926218;28;20234;-51
2022/12/15 13:42:35;;;;;;;0.00;0.00;;;;;;;0.72;94.72;97361.13;4958547;28;20305;-51
2022/12/15 13:45:38;;;;;;;0.00;0.00;;;;;;;0.70;93.81;97365.56;4955500;28;20236;-51
2022/12/15 13:48:37;;;;;;;0.00;0.00;;;;;;;0.56;94.00;97365.81;4954057;28;20320;-50
2022/12/15 13:51:21;;;;;;;0.00;0.00;;;;;;;0.48;94.11;97375.84;4902127;29;20284;-51
2022/12/15 13:53:55;;;;;;;0.00;0.00;;;;;;;0.35;94.57;97376.00;4946508;28;20230;-51
2022/12/15 13:56:43;;;;;;;0.00;0.00;;;;;;;0.38;95.51;97368.84;4955817;28;20229;-52
2022/12/15 13:59:20;;;;;;;0.10;0.10;;;;;;;0.31;95.95;97365.13;4954871;28;20227;-51
2022/12/15 14:01:51;;;;;;;0.00;0.00;;;;;;;0.10;98.85;97365.00;4956168;28;20229;-50
2022/12/15 14:04:20;;;;;;;0.10;0.10;;;;;;;0.17;98.33;97366.19;4958858;28;20230;-50
2022/12/15 14:06:50;;;;;;;0.10;0.10;;;;;;;0.05;98.80;97373.03;4955596;28;20575;-50
2022/12/15 14:09:22;;;;;;;0.00;0.00;;;;;;;0.06;100.00;97381.56;4957839;28;20284;-50